Bango, Nevada Weather observations

Data are for 10 minute period ending at time listed.
 Day   Time    Ave.   Ave.  Ave.  Vector   Max.   Stn.    Total    Solar   Ave.  
  of    of     Air    Rel.  Wind   Wind    Wind   Baro.  Precip.   Rad.    Soil  
Year   Day     Temp.  Hum.  Speed  Dir.    Gust   Pres.                    Temp. 
2017   (PST)    F      %     mph   deg.    mph     mb.     in.     W/m2     F    
--------------------------------------------------------------------------------- 
 112    0:30   44.0    51    3.2   320      4.2   876.8    0.00       0    17.6  
 112    0:40   42.9    53    1.7   251      3.3   876.8    0.00       0    17.5  
 112    0:50   42.4    56    2.8   208      4.2   876.6    0.00       0    17.4  
 112    1:00   40.8    61    3.5   213      4.2   876.5    0.00       0    17.3  
 112    1:10   41.1    61    3.3   204      4.2   876.5    0.00       0    17.2  
 112    1:20   41.1    60    2.3   225      3.3   876.4    0.00       0    17.2  
 112    1:30   41.1    60    3.5   289      6.0   876.4    0.00       0    17.1  
 112    1:40   44.8    50    4.1     2      6.0   876.3    0.00       0    17.0  
 112    1:50   45.0    50    3.3    16      4.2   876.1    0.00       0    16.9  
 112    2:00   43.4    54    1.3   318      3.3   876.1    0.00       0    16.8  
 112    2:10   40.5    62    1.4   185      2.4   876.0    0.00       0    16.8  
 112    2:20   39.9    63    2.8   201      4.2   876.0    0.00       0    16.7  
 112    2:30   38.6    67    2.9   218      3.3   875.9    0.00       0    16.6  
 112    2:40   38.6    66    3.0   200      4.2   875.7    0.00       0    16.5  
 112    2:50   38.4    67    3.2   206      5.1   875.7    0.00       0    16.4  
 112    3:00   37.2    70    4.9   239      6.0   875.7    0.00       0    16.3  
 112    3:10   37.0    70    5.3   249      6.9   875.7    0.00       0    16.3  
 112    3:20   36.8    71    5.0   252      6.9   875.7    0.00       0    16.2  
 112    3:30   37.7    68    3.1   246      4.2   875.6    0.00       0    16.1  
 112    3:40   37.8    67    2.8   257      4.2   875.6    0.00       0    16.0  
 112    3:50   39.2    63    1.8   334      3.3   875.5    0.00       0    16.0  
 112    4:00   39.1    63    1.7    13      3.3   875.4    0.00       0    15.9  
 112    4:10   37.0    69    1.2   240      2.4   875.4    0.00       0    15.8  
 112    4:20   37.7    67    1.1   253      2.4   875.3    0.00       0    15.7  
 112    4:30   36.8    69    2.9   318      3.3   875.2    0.00       0    15.7  
 112    4:40   36.7    69    2.7   317      3.3   875.2    0.00       0    15.6  
 112    4:50   36.2    70    2.1   323      3.3   875.1    0.00       0    15.5  
 112    5:00   36.4    71    2.2   254      4.2   875.2    0.00       1    15.4  
 112    5:10   36.1    72    3.9   227      5.1   875.2    0.00       6    15.4  
 112    5:20   36.4    72    3.8   243      5.1   875.2    0.00      19    15.3  
 112    5:30   36.7    72    1.4   204      3.3   875.1    0.00      45    15.2  
 112    5:40   37.2    72    2.6   174      5.1   874.9    0.00      71    15.1  
 112    5:50   38.7    70    4.3   207      6.0   874.9    0.00      79    15.1  
 112    6:00   39.8    69    5.1   236      6.9   875.0    0.00     101    15.0  
 112    6:10   41.7    64    4.5   238      5.1   875.0    0.00      87    14.9  
 112    6:20   42.8    62    3.7   242      5.1   875.1    0.00     116    14.9  
 112    6:30   44.2    61    4.0   231      5.1   875.0    0.00     171    14.8  
 112    6:40   45.6    59    3.7   200      5.1   874.9    0.00     224    14.7  
 112    6:50   47.7    52    3.0   198      4.2   874.9    0.00     308    14.7  
 112    7:00   49.1    50    3.4   214      4.2   874.9    0.00     319    14.6  
 112    7:10   50.1    48    2.9   228      4.2   874.8    0.00     317    14.5  
 112    7:20   50.9    42    3.4   208      5.1   874.7    0.00     255    14.5  
 112    7:30   51.5    40    2.7   209      4.2   874.8    0.00     246    14.4  
 112    7:40   52.2    38    2.8   177      5.1   874.8    0.00     384    14.4  
 112    7:50   53.5    35    2.7   152      5.1   874.7    0.00     498    14.3  
 112    8:00   54.2    35    3.7   134      6.0   874.5    0.00     426    14.3  
 112    8:10   54.2    36    3.3   141      6.0   874.4    0.00     364    14.2  
 112    8:20   54.1    36    3.2   167      6.0   874.3    0.00     329    14.2  
 112    8:30   53.9    36    4.2   176      7.8   874.3    0.00     345    14.1  
 112    8:40   54.0    34    4.5   172      6.0   874.2    0.00     369    14.1  
 112    8:50   54.3    35    3.5   164      6.0   874.2    0.00     361    14.1  
 112    9:00   54.7    34    3.8   168      6.0   874.1    0.00     333    14.1  
 112    9:10   55.2    33    3.6   165      6.9   874.0    0.00     470    14.1  
 112    9:20   56.1    33    4.0   141      6.9   874.0    0.00     446    14.1  
 112    9:30   56.2    33    5.0   129      6.9   874.0    0.00     361    14.1  
 112    9:40   56.3    33    4.4   162      6.9   874.0    0.00     479    14.1  
 112    9:50   58.2    32    3.1   136      5.1   873.9    0.00     720    14.1  
 112   10:00   59.2    30    3.4   100      6.0   873.8    0.00     875    14.1  
 112   10:10   60.3    30    4.1   121      8.7   873.7    0.00     886    14.1  
 112   10:20   61.8    28    4.2   116      8.7   873.6    0.00     933    14.1  
 112   10:30   62.3    28    4.8   126     10.5   873.5    0.00     898    14.1  
 112   10:40   62.7    27    5.0   149      9.6   873.5    0.00     997    14.2  
 112   10:50   63.4    27    5.3   106     10.5   873.5    0.00     894    14.2  
 112   11:00   63.4    27    5.6   127      9.6   873.3    0.00     665    14.2  
 112   11:10   64.4    26    6.5   128     10.5   873.1    0.00     733    14.3  
 112   11:20   64.0    26    6.4   145      9.6   872.9    0.00     701    14.4  
 112   11:30   65.1    25    5.9   124      9.6   872.7    0.00    1037    14.4  
 112   11:40   66.5    24    5.8   112     10.5   872.5    0.00     671    14.5  
 112   11:50   66.5    24    4.0   152      7.8   872.3    0.00     578    14.6  
 112   12:00   67.9    22    4.3   124      7.8   872.2    0.00     934    14.7  
 112   12:10   68.5    22    3.5    92      7.8   872.2    0.00     487    14.8  
 112   12:20   68.0    22    6.0   146      9.6   872.1    0.00     385    14.9  
 112   12:30   68.8    21    4.8   172      8.7   872.0    0.00     622    15.0  
 112   12:40   69.2    21    6.1   131     10.5   871.8    0.00     611    15.1  
 112   12:50   69.2    21    5.1   116      7.8   871.8    0.00     488    15.3  
 112   13:00   69.0    21    3.8   139      8.7   871.7    0.00     467    15.4  
 112   13:10   69.7    20    2.7   126      6.9   871.6    0.00     692    15.5  
 112   13:20   70.0    20    4.9   159      8.7   871.5    0.00     534    15.6  
 112   13:30   69.9    20    3.8   126      6.0   871.5    0.00     491    15.8  
 112   13:40   70.3    20    2.4   103      5.1   871.4    0.00     352    15.9  
 112   13:50   70.4    19    2.1   170      4.2   871.2    0.00     345    16.0  
 112   14:00   70.4    19    3.4   110      5.1   871.2    0.00     272    16.2  
 112   14:10   70.0    19    3.1    13      6.9   870.9    0.00     246    16.3  
 112   14:20   70.2    19    2.9   300      6.0   870.8    0.00     242    16.4  
 112   14:30   69.8    20    4.5   330      7.8   870.6    0.00     223    16.5  
 112   14:40   69.9    19    5.0   352      8.7   870.6    0.00     234    16.6  
 112   14:50   69.7    20    5.6   358      7.8   870.5    0.00     191    16.7  
 112   15:00   69.7    20    4.5   356      6.9   870.4    0.00     165    16.8  
 112   15:10   69.6    19    3.5   345      6.9   870.3    0.00     162    16.9  
 112   15:20   70.0    19    2.1    20      4.2   870.2    0.00     149    17.0  
 112   15:30   69.9    19    2.8    32      5.1   870.1    0.00     138    17.1  
 112   15:40   69.8    20    3.6    28      5.1   870.0    0.00     136    17.2  
 112   15:50   69.9    21    4.1    27      6.0   870.0    0.00     135    17.3  
 112   16:00   69.9    21    4.3    13      6.0   870.1    0.00     111    17.3  
 112   16:10   69.7    21    4.5    47      6.0   870.0    0.00      97    17.4  
 112   16:20   69.5    22    4.7    19      6.9   870.0    0.00      94    17.5  
 112   16:30   69.5    22    5.6   253     12.3   870.1    0.00      82    17.5  
 112   16:40   70.0    24   11.4   252     17.6   870.1    0.00      78    17.6  
 112   16:50   69.0    27   12.5   255     16.7   870.1    0.00      84    17.6  
 112   17:00   68.6    27   15.9   262     23.0   870.1    0.00      86    17.6  
 112   17:10   68.2    27   16.7   269     21.2   870.2    0.00      97    17.7  
 112   17:20   68.1    27   16.1   282     20.3   870.2    0.00     129    17.7  
 112   17:30   68.4    27   16.2   265     22.1   870.1    0.00     121    17.7  
 112   17:40   68.8    26   17.7   260     23.0   870.1    0.00     125    17.8  
 112   17:50   67.8    26   17.3   260     22.1   870.1    0.00      66    17.8  
 112   18:00   67.3    26   18.2   257     23.9   869.9    0.00      37    17.8  
 112   18:10   66.7    27   17.1   257     22.1   869.9    0.00      30    17.8  
 112   18:20   66.3    27   13.6   262     17.6   869.9    0.00      33    17.8  
 112   18:30   65.6    28   14.0   262     17.6   869.8    0.00      11    17.8  
 112   18:40   65.0    29   15.2   264     21.2   869.6    0.00       5    17.8  
 112   18:50   64.5    29   16.9   267     22.1   869.6    0.00       1    17.9  
 112   19:00   64.3    29   17.7   264     25.7   869.7    0.00       0    17.8  
 112   19:10   63.9    29   16.4   264     22.1   869.8    0.00       0    17.8  
 112   19:20   63.2    30   16.5   262     22.1   869.8    0.00       0    17.8  
 112   19:30   62.8    30   18.2   262     24.8   869.8    0.00       0    17.8  
 112   19:40   62.6    30   19.5   260     23.9   869.8    0.00       0    17.8  
 112   19:50   62.2    30   17.3   269     23.9   869.8    0.00       0    17.8  
 112   20:00   61.8    30   21.2   279     27.5   869.6    0.00       0    17.8  
 112   20:10   61.2    30   21.0   273     27.5   869.6    0.00       0    17.7  
 112   20:20   60.8    29   22.5   276     28.4   869.7    0.00       0    17.7  
 112   20:30   60.6    27   23.4   276     32.8   869.8    0.00       0    17.7  
 112   20:40   60.2    26   22.0   275     30.1   869.8    0.00       0    17.7  
 112   20:50   59.6    27   19.4   274     29.2   870.0    0.00       0    17.6  
 112   21:00   58.5    28   17.3   272     21.2   870.3    0.00       0    17.6  
 112   21:10   57.7    29   14.1   270     18.5   870.5    0.00       0    17.6  
 112   21:20   56.7    30   11.5   259     14.9   870.5    0.00       0    17.5  
 112   21:30   58.2    28   11.8   257     15.8   870.5    0.00       0    17.5  
 112   21:40   57.5    29   10.2   267     14.9   870.5    0.00       0    17.5  
 112   21:50   56.5    30   11.1   266     14.9   870.5    0.00       0    17.5  
 112   22:00   56.9    29   11.9   267     14.9   870.3    0.00       0    17.4  
 112   22:10   56.6    30    9.3   266     13.2   870.4    0.00       0    17.4  
 112   22:20   55.8    31    7.3   259     10.5   870.3    0.00       0    17.4  
 112   22:30   53.2    34    5.3   243      6.9   870.4    0.00       0    17.3  
 112   22:40   50.9    38    8.3   244     11.4   870.5    0.00       0    17.3  
 112   22:50   50.8    39    8.0   251      9.6   870.6    0.00       0    17.2  
 112   23:00   48.7    43    7.2   268      8.7   870.5    0.00       0    17.2  
 112   23:10   47.4    46    6.0   258      6.9   870.5    0.00       0    17.2  
 112   23:20   46.2    49    7.1   262      9.6   870.4    0.00       0    17.1  
 112   23:30   47.0    48    7.7   248      9.6   870.4    0.00       0    17.1  
 112   23:40   47.2    48    9.6   240     11.4   870.4    0.00       0    17.0  
 112   23:50   46.3    50   10.6   226     12.3   870.5    0.00       0    17.0  
 113    0:00   47.8    47   10.5   232     12.3   870.5    0.00       0    16.9  
 113    0:10   46.6    50    8.8   249     10.5   870.4    0.00       0    16.9  
 113    0:20   46.2    50    9.3   256     10.5   870.4    0.00       0    16.8  

Return to Garden Spring, Nevada graphs page.


Western Regional Climate Center,wrcc@dri.edu